47M weather

Thornton Airport
Brownsville, Tennessee, United States

Public forecast

Using degrees Fahrenheit for public forecast. Weather courtesy of forecast.io.

Closest aviation weather report (METAR) to Thornton Airport

Closest report is McKellar-Sipes Regional Airport, 15.0 nm (27.8 km) ESE. Retrieved 2019/12/07 13:14 UTC (45 minutes ago):

KMKL 071314Z 35004KT 3SM BR CLR 02/02 A3033 RMK AO2 T00220017

Closest aviation forecast (TAF) to Thornton Airport

Closest forecast is McKellar-Sipes Regional Airport, 15.0 nm (27.8 km) ESE. Retrieved 2019/12/07 12:24 UTC (2 hours ago):

TAF KMKL 071121Z 0712/0812 01003KT 2SM BR FEW009 TEMPO 0712/0715 OVC009 FM071800 03005KT P6SM OVC020 FM072100 03004KT P6SM OVC035 FM080100 00000KT P6SM SCT020 FM080600 15003KT P6SM BKN100